Time;durP1;ratioP1;P1;durP2;ratioP2;P2;SDS_P1;SDS_P2;PMS_P1;PMS_P2;Temp;Humidity;BMP_temperature;BMP_pressure;BME280_temperature;BME280_humidity;BME280_pressure;Samples;Min_cycle;Max_cycle;Signal;HPM_P1;HPM_P2
2023/07/31 00:02:21;;;;;;;5.38;3.33;;;;;;;-148.88;100.00;-17125.47;5035532;28;20061;-71
2023/07/31 00:04:47;;;;;;;5.22;3.55;;;;;;;-148.88;100.00;-17125.47;5035399;28;20048;-71
2023/07/31 00:07:12;;;;;;;4.85;3.50;;;;;;;-148.88;100.00;-17125.47;5035334;28;20027;-71
2023/07/31 00:09:39;;;;;;;4.72;3.92;;;;;;;-148.88;100.00;-17125.47;5035246;28;20065;-71
2023/07/31 00:12:04;;;;;;;4.28;3.88;;;;;;;-148.88;100.00;-17125.47;5034458;28;20107;-71
2023/07/31 00:14:30;;;;;;;4.90;3.88;;;;;;;-148.88;100.00;-17125.47;5035778;28;20052;-71
2023/07/31 00:16:55;;;;;;;5.35;4.53;;;;;;;-148.88;100.00;-17125.47;5035050;28;20473;-71
2023/07/31 00:19:20;;;;;;;6.13;4.35;;;;;;;-148.88;100.00;-17125.47;5033866;28;20025;-71
2023/07/31 00:21:46;;;;;;;4.70;4.30;;;;;;;-148.88;100.00;-17125.47;5035112;28;20399;-71
2023/07/31 00:24:11;;;;;;;5.38;4.28;;;;;;;-148.88;100.00;-17125.47;5034148;28;20059;-72
2023/07/31 00:26:36;;;;;;;4.45;3.90;;;;;;;-148.88;100.00;-17125.47;5034979;28;20459;-71
2023/07/31 00:29:02;;;;;;;4.90;3.88;;;;;;;-148.88;100.00;-17125.47;5034998;28;20057;-71
2023/07/31 00:31:27;;;;;;;6.32;4.38;;;;;;;-148.88;100.00;-17125.47;5034850;28;20072;-71
2023/07/31 00:33:52;;;;;;;6.15;4.07;;;;;;;-148.88;100.00;-17125.47;5034913;28;20049;-71
2023/07/31 00:36:18;;;;;;;7.03;5.28;;;;;;;-148.88;100.00;-17125.47;5034766;28;20392;-70
2023/07/31 00:38:43;;;;;;;5.68;5.05;;;;;;;-148.88;100.00;-17125.47;5034755;28;20171;-71
2023/07/31 00:41:09;;;;;;;6.07;4.80;;;;;;;-148.88;100.00;-17125.47;5034704;28;20033;-71
2023/07/31 00:43:34;;;;;;;7.00;5.05;;;;;;;-148.88;100.00;-17125.47;5034683;28;20033;-71
2023/07/31 00:45:59;;;;;;;5.70;4.80;;;;;;;-148.88;100.00;-17125.47;5034729;28;20026;-71
2023/07/31 00:48:25;;;;;;;5.75;4.60;;;;;;;-148.88;100.00;-17125.47;5034601;28;20555;-71
2023/07/31 00:50:51;;;;;;;7.63;5.38;;;;;;;-148.88;100.00;-17125.47;5034521;28;20554;-71
2023/07/31 00:53:16;;;;;;;7.68;5.32;;;;;;;-148.88;100.00;-17125.47;5034624;28;20032;-71
2023/07/31 00:55:43;;;;;;;9.02;5.60;;;;;;;-148.88;100.00;-17125.47;5034448;28;20060;-71
2023/07/31 00:58:08;;;;;;;6.90;5.65;;;;;;;-148.88;100.00;-17125.47;5034344;28;20033;-71
2023/07/31 01:00:34;;;;;;;7.68;5.90;;;;;;;-148.88;100.00;-17125.47;5034408;28;20028;-71
2023/07/31 01:03:00;;;;;;;6.95;6.05;;;;;;;-148.88;100.00;-17125.47;5034368;28;20053;-71
2023/07/31 01:05:42;;;;;;;7.50;6.43;;;;;;;-148.88;100.00;-17125.47;5033071;28;20032;-71
2023/07/31 01:08:23;;;;;;;9.95;7.60;;;;;;;-148.88;100.00;-17125.47;5034236;28;20026;-71
2023/07/31 01:11:15;;;;;;;9.13;7.80;;;;;;;-148.88;100.00;-17125.47;5034603;28;20037;-71
2023/07/31 01:13:40;;;;;;;9.65;8.13;;;;;;;-148.88;100.00;-17125.47;5034268;28;20028;-71
2023/07/31 01:16:06;;;;;;;11.13;8.93;;;;;;;-148.88;100.00;-17125.47;5034077;28;20026;-71
2023/07/31 01:18:31;;;;;;;9.80;8.73;;;;;;;-148.88;100.00;-17125.47;5034020;28;20017;-71
2023/07/31 01:21:13;;;;;;;9.77;8.38;;;;;;;-148.88;100.00;-17125.47;5033147;28;20026;-71
2023/07/31 01:24:05;;;;;;;8.75;7.90;;;;;;;-148.88;100.00;-17125.47;5033394;28;20064;-71
2023/07/31 01:26:36;;;;;;;8.48;7.55;;;;;;;-148.88;100.00;-17125.47;5033931;28;20049;-71
2023/07/31 01:29:26;;;;;;;8.38;7.57;;;;;;;-148.88;100.00;-17125.47;5033861;28;20022;-71
2023/07/31 01:31:53;;;;;;;7.22;6.53;;;;;;;-148.88;100.00;-17125.47;5033753;28;20132;-71
2023/07/31 01:34:21;;;;;;;7.55;6.75;;;;;;;-148.88;100.00;-17125.47;5033990;28;20025;-71
2023/07/31 01:36:46;;;;;;;6.47;5.88;;;;;;;-148.88;100.00;-17125.47;5032408;28;20025;-71
2023/07/31 01:39:11;;;;;;;6.10;5.50;;;;;;;-148.88;100.00;-17125.47;5033627;28;20555;-71
2023/07/31 01:41:37;;;;;;;5.95;5.38;;;;;;;-148.88;100.00;-17125.47;5033621;28;20515;-71
2023/07/31 01:44:02;;;;;;;5.72;5.13;;;;;;;-148.88;100.00;-17125.47;5032232;28;20052;-71
2023/07/31 01:46:27;;;;;;;6.85;4.97;;;;;;;-148.88;100.00;-17125.47;5033356;28;20021;-71
2023/07/31 01:48:53;;;;;;;5.63;5.03;;;;;;;-148.88;100.00;-17125.47;5033534;28;20060;-71
2023/07/31 01:51:18;;;;;;;4.80;4.25;;;;;;;-148.88;100.00;-17125.47;5033408;28;20056;-71
2023/07/31 01:53:44;;;;;;;4.72;3.85;;;;;;;-148.88;100.00;-17125.47;5033459;28;20021;-72
2023/07/31 01:56:09;;;;;;;5.20;4.07;;;;;;;-148.88;100.00;-17125.47;5033366;28;20036;-71
2023/07/31 01:58:34;;;;;;;5.90;4.20;;;;;;;-148.88;100.00;-17125.47;5032013;28;20030;-72
2023/07/31 02:01:00;;;;;;;5.72;4.00;;;;;;;-148.88;100.00;-17125.47;5033243;28;20370;-71
2023/07/31 02:03:25;;;;;;;4.97;3.30;;;;;;;-148.88;100.00;-17125.47;5033424;28;20032;-71
2023/07/31 02:05:50;;;;;;;4.55;2.90;;;;;;;-148.88;100.00;-17125.47;5033210;28;20132;-71
2023/07/31 02:08:16;;;;;;;3.47;2.53;;;;;;;-148.88;100.00;-17125.47;5033138;28;20052;-71
2023/07/31 02:10:41;;;;;;;2.92;2.17;;;;;;;-148.88;100.00;-17125.47;5031862;28;20099;-71
2023/07/31 02:13:07;;;;;;;3.15;2.00;;;;;;;-148.88;100.00;-17125.47;5033166;28;20021;-72
2023/07/31 02:15:33;;;;;;;3.17;2.30;;;;;;;-148.88;100.00;-17125.47;5033107;28;20025;-71
2023/07/31 02:17:58;;;;;;;4.85;2.05;;;;;;;-148.88;100.00;-17125.47;5032998;28;20029;-71
2023/07/31 02:20:24;;;;;;;3.72;2.00;;;;;;;-148.88;100.00;-17125.47;5033059;28;20046;-71
2023/07/31 02:22:49;;;;;;;2.90;2.00;;;;;;;-148.88;100.00;-17125.47;5033004;28;20112;-71
2023/07/31 02:25:14;;;;;;;3.53;1.60;;;;;;;-148.88;100.00;-17125.47;5032902;28;20104;-71
2023/07/31 02:27:40;;;;;;;2.70;1.90;;;;;;;-148.88;100.00;-17125.47;5032866;28;20021;-71
2023/07/31 02:30:06;;;;;;;3.10;1.73;;;;;;;-148.88;100.00;-17125.47;5033059;28;20037;-71
2023/07/31 02:32:31;;;;;;;2.55;1.60;;;;;;;-148.88;100.00;-17125.47;5032870;28;20116;-71
2023/07/31 02:34:57;;;;;;;3.05;1.45;;;;;;;-148.88;100.00;-17125.47;5032331;28;20476;-71
2023/07/31 02:37:23;;;;;;;4.07;1.98;;;;;;;-148.88;100.00;-17125.47;5032943;28;20045;-71
2023/07/31 02:39:49;;;;;;;2.75;1.75;;;;;;;-148.88;100.00;-17125.47;5032750;28;20026;-71
2023/07/31 02:42:15;;;;;;;3.85;1.80;;;;;;;-148.88;100.00;-17125.47;5032737;28;20079;-71
2023/07/31 02:44:40;;;;;;;3.03;1.77;;;;;;;-148.88;100.00;-17125.47;5032809;28;20025;-71
2023/07/31 02:47:06;;;;;;;2.35;1.33;;;;;;;-148.88;100.00;-17125.47;5032675;28;20033;-71
2023/07/31 02:49:31;;;;;;;2.55;1.70;;;;;;;-148.88;100.00;-17125.47;5032760;28;20440;-71
2023/07/31 02:51:57;;;;;;;2.92;1.55;;;;;;;-148.88;100.00;-17125.47;5032724;28;20063;-72
2023/07/31 02:54:22;;;;;;;4.10;1.52;;;;;;;-148.88;100.00;-17125.47;5032667;28;20044;-71
2023/07/31 02:56:48;;;;;;;2.13;1.33;;;;;;;-148.88;100.00;-17125.47;5032707;28;20550;-70
2023/07/31 02:59:13;;;;;;;2.88;1.75;;;;;;;-148.88;100.00;-17125.47;5033073;28;20029;-70
2023/07/31 03:01:39;;;;;;;2.88;1.58;;;;;;;-148.88;100.00;-17125.47;5097502;22;20041;-70
2023/07/31 03:04:04;;;;;;;2.35;1.13;;;;;;;-148.88;100.00;-17125.47;5032581;28;20033;-71
2023/07/31 03:06:30;;;;;;;1.88;1.20;;;;;;;-148.88;100.00;-17125.47;5032686;28;20026;-71
2023/07/31 03:08:55;;;;;;;2.22;1.17;;;;;;;-148.88;100.00;-17125.47;5032545;28;20021;-72
2023/07/31 03:11:21;;;;;;;2.00;1.33;;;;;;;-148.88;100.00;-17125.47;5032536;28;20029;-71
2023/07/31 03:13:46;;;;;;;1.98;1.10;;;;;;;-148.88;100.00;-17125.47;5042657;23;20041;-74
2023/07/31 03:16:12;;;;;;;3.38;1.10;;;;;;;-148.88;100.00;-17125.47;5032642;28;20080;-73
2023/07/31 03:18:37;;;;;;;1.80;1.00;;;;;;;-148.88;100.00;-17125.47;5032552;28;20128;-73
2023/07/31 03:21:03;;;;;;;1.90;1.05;;;;;;;-148.88;100.00;-17125.47;5031369;28;20029;-73
2023/07/31 03:23:29;;;;;;;1.30;0.80;;;;;;;-148.88;100.00;-17125.47;5032879;28;20044;-74
2023/07/31 03:25:58;;;;;;;1.73;1.02;;;;;;;-148.88;100.00;-17125.47;5032609;28;20476;-73
2023/07/31 03:28:24;;;;;;;2.05;1.20;;;;;;;-148.88;100.00;-17125.47;5031234;28;20021;-74
2023/07/31 03:30:51;;;;;;;4.15;1.00;;;;;;;-148.88;100.00;-17125.47;5032567;28;20020;-73
2023/07/31 03:33:17;;;;;;;2.00;1.27;;;;;;;-148.88;100.00;-17125.47;5032444;28;20027;-74
2023/07/31 03:35:42;;;;;;;3.25;2.05;;;;;;;-148.88;100.00;-17125.47;5032441;28;20021;-73
2023/07/31 03:38:08;;;;;;;7.80;2.90;;;;;;;-148.88;100.00;-17125.47;5032326;28;20048;-73
2023/07/31 03:40:33;;;;;;;6.05;3.70;;;;;;;-148.88;100.00;-17125.47;5032418;28;20022;-73
2023/07/31 03:42:58;;;;;;;7.93;4.60;;;;;;;-148.88;100.00;-17125.47;5032574;28;20100;-73
2023/07/31 03:45:24;;;;;;;7.50;4.90;;;;;;;-148.88;100.00;-17125.47;5032503;28;20104;-74
2023/07/31 03:47:49;;;;;;;13.35;7.80;;;;;;;-148.88;100.00;-17125.47;5033975;28;20357;-74
2023/07/31 03:50:14;;;;;;;13.70;8.35;;;;;;;-148.88;100.00;-17125.47;5035777;28;20026;-74
2023/07/31 03:52:41;;;;;;;14.95;9.93;;;;;;;-148.88;100.00;-17125.47;5036177;28;20092;-74
2023/07/31 03:55:07;;;;;;;19.05;12.20;;;;;;;-148.88;100.00;-17125.47;5036037;28;20416;-74
2023/07/31 03:57:32;;;;;;;20.70;12.73;;;;;;;-148.88;100.00;-17125.47;5035653;28;20492;-74
2023/07/31 03:59:58;;;;;;;22.98;13.02;;;;;;;-148.88;100.00;-17125.47;5036125;28;20026;-74
2023/07/31 04:02:23;;;;;;;23.50;13.52;;;;;;;-148.88;100.00;-17125.47;5035551;28;20033;-74
2023/07/31 04:04:49;;;;;;;22.80;13.38;;;;;;;-148.88;100.00;-17125.47;5035552;28;20025;-74
2023/07/31 04:07:14;;;;;;;22.60;13.85;;;;;;;-148.88;100.00;-17125.47;5035751;28;20021;-74
2023/07/31 04:09:39;;;;;;;23.90;13.75;;;;;;;-148.88;100.00;-17125.47;5035476;28;20147;-74
2023/07/31 04:12:05;;;;;;;25.27;14.00;;;;;;;-148.88;100.00;-17125.47;5036027;28;20144;-74
2023/07/31 04:14:30;;;;;;;23.95;13.77;;;;;;;-148.88;100.00;-17125.47;5035283;28;20030;-74
2023/07/31 04:16:56;;;;;;;26.25;14.80;;;;;;;-148.88;100.00;-17125.47;5035546;28;20021;-74
2023/07/31 04:19:21;;;;;;;29.23;15.95;;;;;;;-148.88;100.00;-17125.47;5035600;28;20112;-74
2023/07/31 04:21:46;;;;;;;27.45;16.88;;;;;;;-148.88;100.00;-17125.47;5035318;28;20081;-74
2023/07/31 04:24:12;;;;;;;28.80;17.65;;;;;;;-148.88;100.00;-17125.47;5035496;28;20076;-74
2023/07/31 04:26:37;;;;;;;28.85;17.98;;;;;;;-148.88;100.00;-17125.47;5035085;28;20484;-74
2023/07/31 04:29:02;;;;;;;28.83;18.58;;;;;;;-148.88;100.00;-17125.47;5035077;28;20530;-74
2023/07/31 04:31:28;;;;;;;26.85;18.58;;;;;;;-148.88;100.00;-17125.47;5034988;28;20041;-74
2023/07/31 04:33:53;;;;;;;29.33;18.33;;;;;;;-148.88;100.00;-17125.47;5035276;28;20034;-74
2023/07/31 04:36:18;;;;;;;30.08;18.13;;;;;;;-148.88;100.00;-17125.47;5034879;28;20017;-74
2023/07/31 04:38:44;;;;;;;29.45;18.17;;;;;;;-148.88;100.00;-17125.47;5035296;28;20104;-74
2023/07/31 04:41:09;;;;;;;32.28;18.52;;;;;;;-148.88;100.00;-17125.47;5034847;28;20100;-74
2023/07/31 04:43:34;;;;;;;34.15;19.58;;;;;;;-148.88;100.00;-17125.47;5035142;28;20025;-74
2023/07/31 04:46:00;;;;;;;29.27;17.63;;;;;;;-148.88;100.00;-17125.47;5035093;28;20383;-74
2023/07/31 04:48:25;;;;;;;31.70;18.25;;;;;;;-148.88;100.00;-17125.47;5034895;28;20029;-74
2023/07/31 04:50:50;;;;;;;27.92;17.30;;;;;;;-148.88;100.00;-17125.47;5033462;28;20021;-74
2023/07/31 04:53:16;;;;;;;29.05;18.65;;;;;;;-148.88;100.00;-17125.47;5033412;28;20029;-74
2023/07/31 04:55:41;;;;;;;25.98;18.25;;;;;;;-148.88;100.00;-17125.47;5034970;28;20391;-75
2023/07/31 04:58:06;;;;;;;27.77;17.77;;;;;;;-148.88;100.00;-17125.47;5032840;28;20049;-74
2023/07/31 05:00:32;;;;;;;31.80;18.90;;;;;;;-148.88;100.00;-17125.47;5034470;28;20021;-74
2023/07/31 05:02:57;;;;;;;30.33;17.38;;;;;;;-148.88;100.00;-17125.47;5034379;28;20048;-74
2023/07/31 05:05:23;;;;;;;32.17;17.98;;;;;;;-148.88;100.00;-17125.47;5033395;28;20022;-74
2023/07/31 05:07:48;;;;;;;30.25;17.77;;;;;;;-148.88;100.00;-17125.47;5034409;28;20043;-74
2023/07/31 05:10:14;;;;;;;32.47;19.08;;;;;;;-148.88;100.00;-17125.47;5035136;28;20482;-75
2023/07/31 05:12:39;;;;;;;31.23;18.08;;;;;;;-148.88;100.00;-17125.47;5033212;28;20499;-74
2023/07/31 05:15:05;;;;;;;33.47;17.80;;;;;;;-148.88;100.00;-17125.47;5034017;28;20481;-74
2023/07/31 05:17:30;;;;;;;30.05;16.77;;;;;;;-148.88;100.00;-17125.47;5034327;28;20022;-74
2023/07/31 05:19:55;;;;;;;23.15;14.95;;;;;;;-148.88;100.00;-17125.47;5034058;28;20051;-74
2023/07/31 05:22:21;;;;;;;29.83;17.55;;;;;;;-148.88;100.00;-17125.47;5034071;28;20036;-74
2023/07/31 05:24:46;;;;;;;28.67;15.40;;;;;;;-148.88;100.00;-17125.47;5034522;28;20025;-74
2023/07/31 05:27:12;;;;;;;31.77;15.85;;;;;;;-148.88;100.00;-17125.47;5033931;28;20018;-74
2023/07/31 05:29:38;;;;;;;27.85;15.10;;;;;;;-148.88;100.00;-17125.47;5032694;28;20025;-74
2023/07/31 05:32:03;;;;;;;26.58;14.85;;;;;;;-148.88;100.00;-17125.47;5034135;28;20486;-74
2023/07/31 05:34:29;;;;;;;24.30;13.23;;;;;;;-148.88;100.00;-17125.47;5033850;28;20100;-74
2023/07/31 05:36:54;;;;;;;27.40;13.43;;;;;;;-148.88;100.00;-17125.47;5034021;28;20021;-74
2023/07/31 05:39:19;;;;;;;23.98;12.18;;;;;;;-148.88;100.00;-17125.47;5033753;28;20060;-74
2023/07/31 05:41:45;;;;;;;23.05;11.85;;;;;;;-148.88;100.00;-17125.47;5034012;28;20080;-74
2023/07/31 05:44:10;;;;;;;23.95;12.25;;;;;;;-148.88;100.00;-17125.47;5032361;28;20034;-74
2023/07/31 05:46:36;;;;;;;22.25;11.85;;;;;;;-148.88;100.00;-17125.47;5033643;28;20411;-74
2023/07/31 05:49:01;;;;;;;24.27;10.77;;;;;;;-148.88;100.00;-17125.47;5033614;28;20025;-74
2023/07/31 05:51:27;;;;;;;23.10;10.15;;;;;;;-148.88;100.00;-17125.47;5033525;28;20476;-74
2023/07/31 05:53:53;;;;;;;25.42;10.07;;;;;;;-148.88;100.00;-17125.47;5033824;28;20017;-74
2023/07/31 05:56:18;;;;;;;27.67;10.43;;;;;;;-148.88;100.00;-17125.47;5033333;28;20400;-74
2023/07/31 05:58:44;;;;;;;22.35;10.40;;;;;;;-148.88;100.00;-17125.47;5034056;28;20495;-75
2023/07/31 06:01:09;;;;;;;19.23;10.02;;;;;;;-148.88;100.00;-17125.47;5033532;28;20104;-74
2023/07/31 06:03:37;;;;;;;20.15;9.38;;;;;;;-148.88;100.00;-17125.47;5033313;28;20495;-74
2023/07/31 06:06:02;;;;;;;21.25;10.00;;;;;;;-148.88;100.00;-17125.47;5033584;28;20025;-74
2023/07/31 06:08:27;;;;;;;19.73;9.23;;;;;;;-148.88;100.00;-17125.47;5032268;28;20029;-74
2023/07/31 06:10:55;;;;;;;17.15;8.80;;;;;;;-148.88;100.00;-17125.47;5032599;28;20469;-74
2023/07/31 06:13:20;;;;;;;18.63;8.70;;;;;;;-148.88;100.00;-17125.47;5033330;28;20110;-75
2023/07/31 06:15:46;;;;;;;18.65;8.98;;;;;;;-148.88;100.00;-17125.47;5032009;28;20068;-74
2023/07/31 06:18:11;;;;;;;21.77;9.05;;;;;;;-148.88;100.00;-17125.47;5033131;28;20030;-74
2023/07/31 06:20:37;;;;;;;21.63;9.35;;;;;;;-148.88;100.00;-17125.47;5031824;28;20025;-74
2023/07/31 06:23:03;;;;;;;17.52;8.55;;;;;;;-148.88;100.00;-17125.47;5033165;28;20060;-74
2023/07/31 06:25:28;;;;;;;19.30;8.60;;;;;;;-148.88;100.00;-17125.47;5031947;28;20561;-74
2023/07/31 06:27:54;;;;;;;19.70;8.48;;;;;;;-148.88;100.00;-17125.47;5032958;28;20061;-74
2023/07/31 06:30:19;;;;;;;21.50;9.18;;;;;;;-148.88;100.00;-17125.47;5033005;28;20017;-74
2023/07/31 06:32:45;;;;;;;23.63;9.50;;;;;;;-148.88;100.00;-17125.47;5032994;28;20104;-74
2023/07/31 06:35:10;;;;;;;19.90;9.02;;;;;;;-148.88;100.00;-17125.47;5032437;28;20112;-75
2023/07/31 06:37:35;;;;;;;18.88;8.32;;;;;;;-148.88;100.00;-17125.47;5032883;28;20021;-75
2023/07/31 06:40:01;;;;;;;19.73;8.68;;;;;;;-148.88;100.00;-17125.47;5032994;28;20029;-74
2023/07/31 06:42:26;;;;;;;19.17;9.15;;;;;;;-148.88;100.00;-17125.47;5032131;28;20032;-74
2023/07/31 06:44:52;;;;;;;19.13;8.90;;;;;;;-148.88;100.00;-17125.47;5033299;28;20032;-73
2023/07/31 06:47:17;;;;;;;19.95;8.40;;;;;;;-148.88;100.00;-17125.47;5033159;28;20051;-74
2023/07/31 06:49:42;;;;;;;20.65;9.75;;;;;;;-148.88;100.00;-17125.47;5032734;28;20025;-75
2023/07/31 06:52:08;;;;;;;19.77;8.68;;;;;;;-148.88;100.00;-17125.47;5033251;28;20034;-75
2023/07/31 06:54:33;;;;;;;21.92;9.15;;;;;;;-148.88;100.00;-17125.47;5032659;28;20025;-75
2023/07/31 06:56:58;;;;;;;19.42;8.90;;;;;;;-148.88;100.00;-17125.47;5031339;28;20473;-75
2023/07/31 06:59:24;;;;;;;19.27;9.18;;;;;;;-148.88;100.00;-17125.47;5033087;28;20029;-75
2023/07/31 07:01:49;;;;;;;20.23;9.50;;;;;;;-148.88;100.00;-17125.47;5032576;28;20160;-75
2023/07/31 07:04:14;;;;;;;18.30;9.50;;;;;;;-148.88;100.00;-17125.47;5032544;28;20021;-76
2023/07/31 07:06:40;;;;;;;18.48;8.80;;;;;;;-148.88;100.00;-17125.47;5032483;28;20116;-75
2023/07/31 07:09:05;;;;;;;20.40;9.00;;;;;;;-148.88;100.00;-17125.47;5032463;28;20101;-75
2023/07/31 07:11:31;;;;;;;19.25;8.80;;;;;;;-148.88;100.00;-17125.47;5032499;28;20403;-75
2023/07/31 07:13:56;;;;;;;21.70;8.63;;;;;;;-148.88;100.00;-17125.47;5032500;28;20403;-75
2023/07/31 07:16:22;;;;;;;19.35;9.20;;;;;;;-148.88;100.00;-17125.47;5031080;28;20022;-75
2023/07/31 07:18:47;;;;;;;18.92;8.75;;;;;;;-148.88;100.00;-17125.47;5032449;28;20033;-75
2023/07/31 07:21:15;;;;;;;16.23;8.95;;;;;;;-148.88;100.00;-17125.47;5032016;28;20053;-75
2023/07/31 07:23:42;;;;;;;23.20;9.35;;;;;;;-148.88;100.00;-17125.47;5035072;28;20029;-75
2023/07/31 07:26:07;;;;;;;19.25;8.52;;;;;;;-148.88;100.00;-17125.47;5036150;28;20030;-75
2023/07/31 07:28:32;;;;;;;22.38;8.80;;;;;;;-148.88;100.00;-17125.47;5036047;28;20449;-75
2023/07/31 07:30:58;;;;;;;17.05;8.10;;;;;;;-148.88;100.00;-17125.47;5036081;28;20463;-75
2023/07/31 07:33:23;;;;;;;18.23;9.40;;;;;;;-148.88;100.00;-17125.47;5034707;28;20476;-75
2023/07/31 07:35:48;;;;;;;23.58;10.43;;;;;;;-148.88;100.00;-17125.47;5035964;28;20033;-75
2023/07/31 07:38:19;;;;;;;19.67;9.40;;;;;;;-148.88;100.00;-17125.47;5035851;28;20048;-75
2023/07/31 07:40:46;;;;;;;19.02;9.52;;;;;;;-148.88;100.00;-17125.47;5035432;28;20017;-75
2023/07/31 07:43:12;;;;;;;17.08;9.38;;;;;;;-148.88;100.00;-17125.47;5034551;28;20029;-75
2023/07/31 07:45:37;;;;;;;20.73;10.55;;;;;;;-148.88;100.00;-17125.47;5035969;28;20392;-75
2023/07/31 07:48:03;;;;;;;18.83;10.52;;;;;;;-148.88;100.00;-17125.47;5035735;28;20037;-75
2023/07/31 07:50:28;;;;;;;21.38;10.63;;;;;;;-148.88;100.00;-17125.47;5035720;28;20052;-75
2023/07/31 07:52:53;;;;;;;16.27;10.82;;;;;;;-148.88;100.00;-17125.47;5036135;28;20025;-75
2023/07/31 07:55:21;;;;;;;20.35;10.93;;;;;;;-148.88;100.00;-17125.47;5035787;28;20040;-75
2023/07/31 07:57:46;;;;;;;20.95;11.27;;;;;;;-148.88;100.00;-17125.47;5035672;28;20022;-75
2023/07/31 08:00:13;;;;;;;19.27;10.50;;;;;;;-148.88;100.00;-17125.47;5035757;28;20036;-75
2023/07/31 08:02:38;;;;;;;18.60;10.40;;;;;;;-148.88;100.00;-17125.47;5035781;28;20083;-76
2023/07/31 08:05:04;;;;;;;21.90;10.70;;;;;;;-148.88;100.00;-17125.47;5035696;28;20033;-76
2023/07/31 08:07:29;;;;;;;18.52;10.40;;;;;;;-148.88;100.00;-17125.47;5035876;28;20029;-76
2023/07/31 08:09:54;;;;;;;18.63;10.68;;;;;;;-148.88;100.00;-17125.47;5035324;28;20026;-76
2023/07/31 08:12:20;;;;;;;17.85;11.18;;;;;;;-148.88;100.00;-17125.47;5035556;28;20018;-76
2023/07/31 08:14:45;;;;;;;17.38;10.60;;;;;;;-148.88;100.00;-17125.47;5035172;28;20033;-76
2023/07/31 08:17:10;;;;;;;17.30;10.80;;;;;;;-148.88;100.00;-17125.47;5035223;28;20411;-76
2023/07/31 08:19:36;;;;;;;18.10;9.88;;;;;;;-148.88;100.00;-17125.47;5033860;28;20083;-76
2023/07/31 08:22:01;;;;;;;14.23;9.02;;;;;;;-148.88;100.00;-17125.47;5035196;28;20033;-76
2023/07/31 08:24:27;;;;;;;13.77;8.32;;;;;;;-148.88;100.00;-17125.47;5035411;28;20093;-76
2023/07/31 08:26:52;;;;;;;12.68;8.20;;;;;;;-148.88;100.00;-17125.47;5033670;28;20025;-75
2023/07/31 08:29:17;;;;;;;10.88;8.00;;;;;;;-148.88;100.00;-17125.47;5035040;28;20027;-76
2023/07/31 08:31:43;;;;;;;10.73;8.05;;;;;;;-148.88;100.00;-17125.47;5035143;28;20028;-76
2023/07/31 08:34:08;;;;;;;11.38;8.52;;;;;;;-148.88;100.00;-17125.47;5033119;28;20029;-76
2023/07/31 08:36:33;;;;;;;10.00;7.30;;;;;;;-148.88;100.00;-17125.47;5034438;28;20021;-76
2023/07/31 08:38:59;;;;;;;10.98;7.15;;;;;;;-148.88;100.00;-17125.47;5035056;28;20518;-76
2023/07/31 08:41:25;;;;;;;9.82;6.88;;;;;;;-148.88;100.00;-17125.47;5035442;28;20384;-76
2023/07/31 08:43:52;;;;;;;10.68;7.90;;;;;;;-148.88;100.00;-17125.47;5034774;28;20025;-76
2023/07/31 08:46:18;;;;;;;10.77;8.30;;;;;;;-148.88;100.00;-17125.47;5033473;28;20557;-76
2023/07/31 08:48:45;;;;;;;10.50;8.55;;;;;;;-148.88;100.00;-17125.47;5035207;28;20025;-76
2023/07/31 08:51:11;;;;;;;12.38;9.23;;;;;;;-148.88;100.00;-17125.47;5033316;28;20017;-76
2023/07/31 08:53:36;;;;;;;10.13;8.60;;;;;;;-148.88;100.00;-17125.47;5034591;28;20028;-76
2023/07/31 08:56:02;;;;;;;11.75;8.25;;;;;;;-148.88;100.00;-17125.47;5034733;28;20021;-76
2023/07/31 08:58:31;;;;;;;10.02;7.30;;;;;;;-148.88;100.00;-17125.47;5033191;28;20108;-76
2023/07/31 09:00:58;;;;;;;10.23;6.85;;;;;;;-148.88;100.00;-17125.47;5034694;28;20033;-76
2023/07/31 09:03:26;;;;;;;11.13;6.55;;;;;;;-148.88;100.00;-17125.47;5034478;28;20021;-75
2023/07/31 09:05:53;;;;;;;8.18;5.88;;;;;;;-148.88;100.00;-17125.47;5034712;28;20021;-76
2023/07/31 09:08:21;;;;;;;9.70;6.88;;;;;;;-148.88;100.00;-17125.47;5034320;28;20048;-76
2023/07/31 09:10:47;;;;;;;10.68;6.43;;;;;;;-148.88;100.00;-17125.47;5032999;28;20033;-75
2023/07/31 09:13:13;;;;;;;9.35;5.82;;;;;;;-148.88;100.00;-17125.47;5049529;28;20018;-76
2023/07/31 09:15:40;;;;;;;7.93;5.45;;;;;;;-148.88;100.00;-17125.47;5034330;28;20575;-76
2023/07/31 09:18:07;;;;;;;8.43;6.20;;;;;;;-148.88;100.00;-17125.47;5034303;28;20033;-76
2023/07/31 09:20:33;;;;;;;7.45;5.40;;;;;;;-148.88;100.00;-17125.47;5034253;28;20031;-76
2023/07/31 09:23:09;;;;;;;7.93;5.50;;;;;;;-148.88;100.00;-17125.47;5034040;28;20036;-76
2023/07/31 09:25:36;;;;;;;7.78;5.18;;;;;;;-148.88;100.00;-17125.47;5034460;28;20108;-76
2023/07/31 09:28:04;;;;;;;8.38;5.35;;;;;;;-148.88;100.00;-17125.47;5032628;28;20048;-76
2023/07/31 09:30:29;;;;;;;5.78;4.65;;;;;;;-148.88;100.00;-17125.47;5033889;28;20057;-76
2023/07/31 09:33:03;;;;;;;8.02;5.32;;;;;;;-148.88;100.00;-17125.47;5033778;28;20057;-76
2023/07/31 09:35:33;;;;;;;7.00;5.53;;;;;;;-148.88;100.00;-17125.47;5033787;28;20030;-76
2023/07/31 09:38:11;;;;;;;7.78;5.70;;;;;;;-148.88;100.00;-17125.47;5034206;28;20590;-76
2023/07/31 09:40:41;;;;;;;7.57;6.13;;;;;;;-148.88;100.00;-17125.47;5033790;28;20030;-76
2023/07/31 09:43:24;;;;;;;7.22;5.72;;;;;;;-148.88;100.00;-17125.47;5033844;28;20030;-76
2023/07/31 09:45:56;;;;;;;8.07;6.07;;;;;;;-148.88;100.00;-17125.47;5034150;28;20032;-76
2023/07/31 09:48:25;;;;;;;6.85;5.95;;;;;;;-148.88;100.00;-17125.47;5033565;28;20021;-76
2023/07/31 09:50:51;;;;;;;7.90;6.00;;;;;;;-148.88;100.00;-17125.47;5034041;28;20026;-76
2023/07/31 09:53:16;;;;;;;6.80;6.10;;;;;;;-148.88;100.00;-17125.47;5033581;28;20025;-76
2023/07/31 09:55:42;;;;;;;9.27;6.25;;;;;;;-148.88;100.00;-17125.47;5033454;28;20021;-76
2023/07/31 09:58:12;;;;;;;8.18;6.55;;;;;;;-148.88;100.00;-17125.47;5032118;28;20025;-76
2023/07/31 10:00:38;;;;;;;9.68;5.63;;;;;;;-148.88;100.00;-17125.47;5033257;28;20032;-76
2023/07/31 10:03:06;;;;;;;6.93;5.50;;;;;;;-148.88;100.00;-17125.47;5033371;28;20506;-76
2023/07/31 10:05:35;;;;;;;6.70;6.00;;;;;;;-148.88;100.00;-17125.47;5033359;28;20468;-76
2023/07/31 10:08:00;;;;;;;6.68;5.60;;;;;;;-148.88;100.00;-17125.47;5033367;28;20025;-76
2023/07/31 10:10:27;;;;;;;5.90;5.30;;;;;;;-148.88;100.00;-17125.47;5033511;28;20100;-76
2023/07/31 10:12:54;;;;;;;6.97;5.28;;;;;;;-148.88;100.00;-17125.47;5033255;28;20101;-76
2023/07/31 10:15:20;;;;;;;5.57;4.88;;;;;;;-148.88;100.00;-17125.47;5033227;28;20045;-77
2023/07/31 10:17:48;;;;;;;6.50;4.75;;;;;;;-148.88;100.00;-17125.47;5033207;28;20029;-76
2023/07/31 10:20:16;;;;;;;6.30;4.95;;;;;;;-148.88;100.00;-17125.47;5031820;28;20022;-76
2023/07/31 10:22:42;;;;;;;6.00;5.40;;;;;;;-148.88;100.00;-17125.47;5031891;28;20029;-76
2023/07/31 10:25:08;;;;;;;9.20;5.68;;;;;;;-148.88;100.00;-17125.47;5031895;28;20033;-76
2023/07/31 10:27:36;;;;;;;5.50;4.75;;;;;;;-148.88;100.00;-17125.47;5033367;28;20392;-76
2023/07/31 10:30:05;;;;;;;6.47;5.00;;;;;;;-148.88;100.00;-17125.47;5033315;28;20018;-76
2023/07/31 10:32:31;;;;;;;6.97;4.10;;;;;;;-148.88;100.00;-17125.47;5032977;28;20124;-76
2023/07/31 10:34:57;;;;;;;5.65;4.28;;;;;;;-148.88;100.00;-17125.47;5031654;28;20033;-76
2023/07/31 10:37:27;;;;;;;4.03;3.30;;;;;;;-148.88;100.00;-17125.47;5032956;28;20017;-76
2023/07/31 10:40:03;;;;;;;4.35;3.42;;;;;;;-148.88;100.00;-17125.47;5032141;28;20030;-76
2023/07/31 10:42:58;;;;;;;4.57;3.40;;;;;;;-148.88;100.00;-17125.47;5031665;28;20464;-76
2023/07/31 10:45:32;;;;;;;4.15;3.63;;;;;;;-148.88;100.00;-17125.47;5019717;28;20403;-76
2023/07/31 10:48:05;;;;;;;4.65;3.38;;;;;;;-148.88;100.00;-17125.47;5032770;28;20029;-76
2023/07/31 10:50:32;;;;;;;4.87;3.50;;;;;;;-148.88;100.00;-17125.47;5033091;28;20396;-76
2023/07/31 10:53:00;;;;;;;4.70;3.28;;;;;;;-148.88;100.00;-17125.47;5031470;28;20025;-76
2023/07/31 10:55:32;;;;;;;5.07;3.55;;;;;;;-148.88;100.00;-17125.47;5033089;28;20071;-76